createdAt,value
2022-12-11T01:52:15.687Z,25.83
2022-12-11T01:54:44.021Z,21.30
2022-12-11T01:57:14.009Z,25.00
2022-12-11T01:59:45.200Z,22.77
2022-12-11T02:02:27.057Z,21.23
2022-12-11T02:04:56.764Z,22.85
2022-12-11T02:07:24.285Z,27.77
2022-12-11T02:09:51.316Z,25.20
2022-12-11T02:12:37.059Z,20.50
2022-12-11T02:15:29.941Z,26.13
2022-12-11T02:18:34.189Z,22.25
2022-12-11T02:21:11.157Z,26.63
2022-12-11T02:23:59.362Z,34.67
2022-12-11T02:26:47.754Z,23.60
2022-12-11T02:29:35.093Z,29.90
2022-12-11T02:32:09.402Z,24.52
2022-12-11T02:35:03.090Z,24.60
2022-12-11T02:37:33.082Z,22.75
2022-12-11T02:40:00.300Z,23.67
2022-12-11T02:42:31.819Z,21.63
2022-12-11T02:45:01.509Z,25.13
2022-12-11T02:47:33.431Z,24.58
2022-12-11T02:50:03.948Z,25.80
2022-12-11T02:52:33.299Z,28.92
2022-12-11T02:55:03.029Z,29.23
2022-12-11T02:57:45.360Z,28.85
2022-12-11T03:00:13.454Z,28.67
2022-12-11T03:02:42.314Z,29.70
2022-12-11T03:05:11.386Z,23.83
2022-12-11T03:07:41.017Z,25.23
2022-12-11T03:10:10.993Z,33.45
2022-12-11T03:12:40.973Z,29.20
2022-12-11T03:15:14.071Z,49.45
2022-12-11T03:18:00.960Z,31.20
2022-12-11T03:20:40.013Z,25.30
2022-12-11T03:23:44.051Z,30.88
2022-12-11T03:26:13.957Z,46.28
2022-12-11T03:28:40.871Z,21.58
2022-12-11T03:31:12.197Z,20.67
2022-12-11T03:33:43.934Z,23.93
2022-12-11T03:36:15.302Z,34.88
2022-12-11T03:38:56.702Z,27.50
2022-12-11T03:41:26.133Z,21.88
2022-12-11T03:43:56.594Z,24.17
2022-12-11T03:46:29.801Z,21.73
2022-12-11T03:49:02.412Z,18.58
2022-12-11T03:51:32.621Z,29.02
2022-12-11T03:54:00.430Z,28.38
2022-12-11T03:56:30.166Z,21.73
2022-12-11T03:58:57.197Z,24.43
2022-12-11T04:01:24.346Z,24.27
2022-12-11T04:03:51.381Z,23.15
2022-12-11T04:06:18.709Z,18.42
2022-12-11T04:08:45.752Z,17.88
2022-12-11T04:11:31.210Z,17.07
2022-12-11T04:14:16.730Z,24.52
2022-12-11T04:16:43.748Z,18.27
2022-12-11T04:19:30.693Z,19.67
2022-12-11T04:22:16.503Z,23.27
2022-12-11T04:24:43.585Z,23.67
2022-12-11T04:27:10.533Z,23.02
2022-12-11T04:29:37.481Z,21.33
2022-12-11T04:32:04.671Z,21.92
2022-12-11T04:34:31.609Z,18.67
2022-12-11T04:36:58.698Z,24.10
2022-12-11T04:39:25.608Z,20.15
2022-12-11T04:41:52.637Z,23.63
2022-12-11T04:44:22.260Z,19.70
2022-12-11T04:46:49.284Z,21.98
2022-12-11T04:49:16.246Z,15.43
2022-12-11T04:51:43.867Z,20.48
2022-12-11T04:54:10.752Z,20.42
2022-12-11T04:56:37.721Z,16.60
2022-12-11T04:59:04.761Z,15.98
2022-12-11T05:01:31.970Z,16.90
2022-12-11T05:04:02.121Z,15.68
2022-12-11T05:06:29.108Z,17.73
2022-12-11T05:08:56.164Z,16.52
2022-12-11T05:11:23.142Z,20.95
2022-12-11T05:13:50.424Z,15.90
2022-12-11T05:16:17.891Z,20.30
2022-12-11T05:18:45.117Z,19.70
2022-12-11T05:21:14.615Z,20.42
2022-12-11T05:23:42.470Z,20.95
2022-12-11T05:26:14.556Z,14.87
2022-12-11T05:28:42.276Z,19.73
2022-12-11T05:31:14.266Z,17.25
2022-12-11T05:33:41.797Z,15.02
2022-12-11T05:36:10.357Z,14.48
2022-12-11T05:38:37.249Z,17.63
2022-12-11T05:41:07.791Z,18.73
2022-12-11T05:43:36.669Z,17.48
2022-12-11T05:46:10.589Z,19.05
2022-12-11T05:48:38.614Z,17.58
2022-12-11T05:51:06.803Z,18.73
2022-12-11T05:53:33.943Z,17.42
2022-12-11T05:56:06.436Z,16.83
2022-12-11T05:58:34.730Z,20.40
2022-12-11T06:01:02.601Z,16.65
2022-12-11T06:03:29.665Z,24.47
2022-12-11T06:06:20.455Z,19.65
2022-12-11T06:08:53.260Z,19.23
2022-12-11T06:11:23.982Z,20.27
2022-12-11T06:13:52.395Z,18.85
2022-12-11T06:16:19.994Z,20.20
2022-12-11T06:18:47.913Z,19.55
2022-12-11T06:21:20.505Z,20.80
2022-12-11T06:23:49.280Z,20.85
2022-12-11T06:26:17.701Z,20.77
2022-12-11T06:28:45.221Z,18.03
2022-12-11T06:31:15.601Z,19.05
2022-12-11T06:33:43.028Z,21.75
2022-12-11T06:36:14.315Z,23.52
2022-12-11T06:38:41.804Z,20.33
2022-12-11T06:41:09.560Z,19.80
2022-12-11T06:43:38.473Z,22.83
2022-12-11T06:46:13.353Z,21.27
2022-12-11T06:48:42.394Z,19.40
2022-12-11T06:51:12.691Z,24.63
2022-12-11T06:53:40.807Z,25.43
2022-12-11T06:56:13.439Z,26.08
2022-12-11T06:58:41.527Z,25.92
2022-12-11T07:01:26.200Z,25.95
2022-12-11T07:03:54.734Z,25.73
2022-12-11T07:06:22.398Z,21.47
2022-12-11T07:08:49.536Z,28.40
2022-12-11T07:11:17.754Z,25.27
2022-12-11T07:13:44.953Z,23.40
2022-12-11T07:16:13.743Z,29.08
2022-12-11T07:18:43.719Z,27.07
2022-12-11T07:21:13.178Z,22.33
2022-12-11T07:23:40.819Z,24.65
2022-12-11T07:26:10.891Z,27.38
2022-12-11T07:28:38.290Z,33.00
2022-12-11T07:31:14.637Z,23.17
2022-12-11T07:33:42.565Z,32.22
2022-12-11T07:36:11.006Z,23.13
2022-12-11T07:38:38.689Z,25.85
2022-12-11T07:41:07.707Z,29.00
2022-12-11T07:43:35.461Z,28.10
2022-12-11T07:46:04.583Z,26.08
2022-12-11T07:48:40.588Z,30.65
2022-12-11T07:51:12.736Z,26.40
2022-12-11T07:53:39.778Z,28.20
2022-12-11T07:56:07.545Z,29.77
2022-12-11T07:58:35.079Z,27.60
2022-12-11T08:01:02.092Z,25.65
2022-12-11T08:03:29.115Z,31.90
2022-12-11T08:05:56.036Z,34.03
2022-12-11T08:08:26.248Z,32.17
2022-12-11T08:10:53.606Z,27.20
2022-12-11T08:13:20.523Z,34.65
2022-12-11T08:15:49.682Z,28.45
2022-12-11T08:18:16.611Z,31.08
2022-12-11T08:20:43.625Z,28.23
2022-12-11T08:23:11.712Z,27.83
2022-12-11T08:25:38.798Z,29.88
2022-12-11T08:28:05.826Z,29.70
2022-12-11T08:30:33.081Z,30.17
2022-12-11T08:33:00.114Z,32.27
2022-12-11T08:35:27.334Z,31.42
2022-12-11T08:37:54.243Z,34.58
2022-12-11T08:40:21.298Z,32.85
2022-12-11T08:42:48.225Z,31.67
2022-12-11T08:45:16.256Z,30.20
2022-12-11T08:47:43.300Z,32.45
2022-12-11T08:50:10.504Z,28.38
2022-12-11T08:52:37.380Z,39.00
2022-12-11T08:55:04.722Z,34.58
2022-12-11T08:57:31.688Z,35.20
2022-12-11T08:59:58.755Z,31.10
2022-12-11T09:02:25.712Z,35.35
2022-12-11T09:04:52.668Z,36.47
2022-12-11T09:07:19.737Z,34.92
2022-12-11T09:09:46.775Z,32.37
2022-12-11T09:12:16.069Z,34.17
2022-12-11T09:14:43.152Z,30.42
2022-12-11T09:17:10.318Z,33.42
2022-12-11T09:19:39.718Z,37.83
2022-12-11T09:22:06.874Z,32.13
2022-12-11T09:24:33.774Z,31.38
2022-12-11T09:27:00.904Z,30.60
2022-12-11T09:29:31.688Z,36.53
2022-12-11T09:31:59.095Z,29.55
2022-12-11T09:34:29.368Z,32.63
2022-12-11T09:36:57.915Z,29.45
2022-12-11T09:39:25.265Z,27.38
2022-12-11T09:42:10.897Z,26.55
2022-12-11T09:45:01.392Z,26.90
2022-12-11T09:47:57.690Z,27.83
2022-12-11T09:50:28.072Z,29.98
2022-12-11T09:53:07.034Z,22.52
2022-12-11T09:55:59.322Z,24.15
2022-12-11T09:58:26.108Z,24.02
2022-12-11T10:01:06.032Z,22.23
2022-12-11T10:03:38.888Z,25.50
2022-12-11T10:06:14.995Z,25.08
2022-12-11T10:08:42.013Z,30.30
2022-12-11T10:11:15.210Z,27.33
2022-12-11T10:13:54.394Z,26.80
2022-12-11T10:16:32.405Z,27.45
2022-12-11T10:19:00.711Z,27.48
2022-12-11T10:21:36.869Z,26.92
2022-12-11T15:28:44.558Z,12.18
2022-12-11T15:31:26.946Z,16.58
2022-12-11T15:33:54.342Z,17.83
2022-12-11T15:36:32.134Z,14.30
2022-12-11T15:38:59.292Z,13.83
2022-12-11T15:41:26.579Z,28.90
2022-12-11T15:43:58.884Z,47.28
2022-12-11T15:46:26.827Z,18.20
2022-12-11T15:48:55.562Z,16.63
2022-12-11T15:51:23.343Z,13.30
2022-12-11T15:53:50.458Z,14.07
2022-12-11T15:56:18.041Z,10.18
2022-12-11T15:58:47.795Z,13.52
2022-12-11T16:01:14.803Z,13.35
2022-12-11T16:03:43.867Z,23.77
2022-12-11T16:06:14.084Z,11.30
2022-12-11T16:08:41.117Z,13.20
2022-12-11T16:11:12.561Z,12.13
2022-12-11T16:13:40.064Z,13.23
2022-12-11T16:16:07.251Z,12.73
2022-12-11T16:18:37.845Z,15.80
2022-12-11T16:21:06.599Z,12.52
2022-12-11T16:23:33.693Z,16.30
2022-12-11T16:26:07.019Z,15.25
2022-12-11T16:28:34.135Z,15.43
2022-12-11T16:31:02.107Z,14.10
2022-12-11T16:33:29.032Z,12.43
2022-12-11T16:35:56.141Z,13.70
2022-12-11T16:38:23.027Z,13.50
2022-12-11T16:40:50.086Z,11.77
2022-12-11T16:43:16.991Z,16.42
2022-12-11T16:45:43.959Z,13.38
2022-12-11T16:48:11.100Z,13.57
2022-12-11T16:50:40.494Z,12.88
2022-12-11T16:53:07.556Z,14.83
2022-12-11T16:55:34.452Z,14.27
2022-12-11T16:58:01.563Z,20.92
2022-12-11T17:00:30.073Z,14.68
2022-12-11T17:02:57.519Z,10.98
2022-12-11T17:05:25.100Z,13.20
2022-12-11T17:07:52.149Z,12.82
2022-12-11T17:10:19.324Z,12.55
2022-12-11T17:12:46.377Z,13.25
2022-12-11T17:15:13.473Z,10.32
2022-12-11T17:17:43.186Z,11.47
2022-12-11T17:20:11.305Z,10.07
2022-12-11T17:22:39.051Z,11.80
2022-12-11T17:25:06.301Z,11.00
2022-12-11T17:27:33.477Z,8.75
2022-12-11T17:30:01.116Z,9.47
2022-12-11T17:32:28.981Z,8.77
2022-12-11T17:34:56.296Z,8.23
2022-12-11T17:37:23.727Z,8.35
2022-12-11T17:39:53.128Z,7.88
2022-12-11T17:42:20.473Z,7.90
2022-12-11T17:44:50.327Z,7.30
2022-12-11T17:47:18.547Z,7.05
2022-12-11T17:49:46.026Z,6.22
2022-12-11T17:52:13.734Z,8.57
2022-12-11T17:54:41.020Z,5.97
2022-12-11T17:57:08.355Z,7.60
2022-12-11T17:59:36.211Z,6.22
2022-12-11T18:02:03.345Z,9.07
2022-12-11T18:04:30.356Z,6.53
2022-12-11T18:06:57.398Z,8.03
2022-12-11T18:09:24.386Z,8.02
2022-12-11T18:11:52.099Z,8.13
2022-12-11T18:14:19.293Z,7.55
2022-12-11T18:16:46.474Z,8.02
2022-12-11T18:19:14.695Z,5.97
2022-12-11T18:21:45.909Z,8.50
2022-12-11T18:24:13.624Z,8.38
2022-12-11T18:26:43.032Z,7.00
2022-12-11T18:29:10.343Z,7.05
2022-12-11T18:31:42.645Z,6.73
2022-12-11T18:34:11.224Z,7.43
2022-12-11T18:36:38.744Z,6.45
2022-12-11T18:39:06.063Z,7.47
2022-12-11T18:41:33.491Z,7.30
2022-12-11T18:44:06.651Z,6.57
2022-12-11T18:46:37.888Z,6.38
2022-12-11T18:49:08.672Z,6.00
2022-12-11T18:51:36.248Z,6.10
2022-12-11T18:54:03.700Z,7.40
2022-12-11T18:56:31.820Z,6.27
2022-12-11T18:58:59.149Z,7.88
2022-12-11T19:01:30.295Z,5.88
2022-12-11T19:04:04.174Z,6.28
2022-12-11T19:06:35.803Z,6.82
2022-12-11T19:09:04.730Z,5.90
2022-12-11T19:11:34.535Z,8.00
2022-12-11T19:14:02.435Z,8.50
2022-12-11T19:16:33.928Z,5.72
2022-12-11T19:19:06.749Z,5.55
2022-12-11T19:21:35.911Z,6.20
2022-12-11T19:24:04.724Z,6.97
2022-12-11T19:26:31.918Z,7.00
2022-12-11T19:29:00.498Z,5.07
2022-12-11T19:31:30.051Z,5.65
2022-12-11T19:33:57.774Z,6.00
2022-12-11T19:36:27.619Z,5.57
2022-12-11T19:38:59.472Z,5.95
2022-12-11T19:41:30.138Z,6.00
2022-12-11T19:44:01.278Z,7.25
2022-12-11T19:46:29.774Z,6.27
2022-12-11T19:48:58.806Z,8.55
2022-12-11T19:51:38.774Z,5.78
2022-12-11T19:54:08.022Z,4.40
2022-12-11T19:56:36.114Z,5.28
2022-12-11T19:59:05.686Z,5.67
2022-12-11T20:01:34.741Z,4.30
2022-12-11T20:04:14.124Z,5.88
2022-12-11T20:06:45.180Z,4.25
2022-12-11T20:09:18.239Z,4.97
2022-12-11T20:11:48.076Z,5.83
2022-12-11T20:14:22.092Z,5.07
2022-12-11T20:19:38.324Z,4.88
2022-12-11T20:22:05.745Z,5.18
2022-12-11T20:24:33.102Z,5.27
2022-12-11T20:27:00.313Z,5.28
2022-12-11T20:29:28.585Z,6.38
2022-12-11T20:31:55.601Z,7.20
2022-12-11T20:34:22.690Z,6.65
2022-12-11T20:36:52.685Z,6.97
2022-12-11T20:39:19.791Z,6.45
2022-12-11T20:41:48.937Z,5.72
2022-12-11T20:44:17.229Z,7.63
2022-12-11T20:46:44.176Z,8.95
2022-12-11T20:49:13.269Z,6.67
2022-12-11T20:51:40.536Z,7.00
2022-12-11T20:54:07.867Z,8.38
2022-12-11T20:56:34.944Z,9.43
2022-12-11T20:59:01.978Z,9.77
2022-12-11T21:01:32.148Z,9.87
2022-12-11T21:04:00.120Z,8.90
2022-12-11T21:06:33.182Z,10.32
2022-12-11T21:09:02.365Z,10.65
2022-12-11T21:11:29.880Z,11.77
2022-12-11T21:13:57.392Z,10.27
2022-12-11T21:16:25.156Z,14.05
2022-12-11T21:18:55.596Z,13.85
2022-12-11T21:21:22.647Z,13.05
2022-12-11T21:23:49.823Z,10.15
2022-12-11T21:26:17.272Z,12.57
2022-12-11T21:28:44.306Z,13.18
2022-12-11T21:31:17.046Z,14.35
2022-12-11T21:33:44.323Z,14.98
2022-12-11T21:36:14.140Z,17.55
2022-12-11T21:38:43.815Z,16.97
2022-12-11T21:41:14.517Z,23.65
2022-12-11T21:44:03.258Z,21.92
2022-12-11T21:46:29.991Z,20.65
2022-12-11T21:48:57.076Z,23.58
2022-12-11T21:51:35.940Z,22.97
2022-12-11T21:54:06.962Z,21.10
2022-12-11T21:56:34.094Z,23.92
2022-12-11T21:59:01.742Z,24.20
2022-12-11T22:01:36.179Z,27.75
2022-12-11T22:04:04.988Z,24.80
2022-12-11T22:06:32.406Z,29.10
2022-12-11T22:08:59.341Z,31.98
2022-12-11T22:11:29.564Z,27.00
2022-12-11T22:13:56.807Z,25.23
2022-12-11T22:16:24.357Z,28.87
2022-12-11T22:18:53.202Z,29.63
2022-12-11T22:21:20.733Z,28.23
2022-12-11T22:23:47.781Z,28.33
2022-12-11T22:26:23.799Z,29.30
2022-12-11T22:28:51.293Z,33.00
2022-12-11T22:31:21.470Z,25.80
2022-12-11T22:33:50.131Z,26.23
2022-12-11T22:36:20.602Z,30.38
2022-12-11T22:41:32.346Z,23.70
2022-12-11T22:43:59.980Z,38.22
2022-12-11T22:46:29.576Z,33.55
2022-12-11T22:49:16.019Z,38.85
2022-12-11T22:51:46.130Z,28.13
2022-12-11T22:54:13.138Z,34.80
2022-12-11T22:56:40.129Z,33.60
2022-12-11T22:59:07.685Z,29.08
2022-12-11T23:01:34.914Z,32.75
2022-12-11T23:04:01.857Z,32.20
2022-12-11T23:06:28.945Z,30.90
2022-12-11T23:08:59.880Z,36.47
2022-12-11T23:11:30.521Z,30.80
2022-12-11T23:13:58.131Z,31.02
2022-12-11T23:16:27.101Z,35.53
2022-12-11T23:18:55.547Z,29.20
2022-12-11T23:21:22.576Z,34.58
2022-12-11T23:23:50.265Z,32.88
2022-12-11T23:26:18.963Z,36.33
2022-12-11T23:28:46.951Z,31.40
2022-12-11T23:31:15.113Z,30.60
2022-12-11T23:33:42.507Z,21.83
2022-12-11T23:36:12.329Z,34.25
2022-12-11T23:38:40.007Z,31.95
2022-12-11T23:41:39.251Z,30.17
2022-12-11T23:44:06.316Z,31.17
2022-12-11T23:46:35.615Z,31.98
2022-12-11T23:49:05.310Z,23.85
2022-12-11T23:51:32.270Z,30.10
2022-12-11T23:53:59.317Z,25.73
2022-12-11T23:56:28.295Z,22.07
2022-12-11T23:58:56.659Z,26.92
